Pep, Texas
Current Conditions -  °F | °C
As of 3:53 PM on Monday 20 Oct 2014 (Local Time) from KLBB Reporting Station
Scattered Clouds Scattered Clouds  
Wind Chill: 77°   Ceiling: Unl
Heat Index: 78°   Visibility: 10mi
Dew Point: 54°   Wind: 5mph
Humidity: 45%   Direction: NA
Pressure: 30.07"   Gusts: NA
Location:  33.81°N, 102.56°W
Report Text: KLBB 202053Z VRB04KT 10SM FEW040 SCT300 25/12 A3007 RMK AO2 SLP144 TCU DSNT NW MDT CU N-NE AND DSNT SE-SW T02500122 56018
Loading
Personal Weather Stations






























Interactive Weather Map New forecast layout! Learn more

10-Day Weather Forecast

Advertisements
Track Severe Weather on mobile